sensor_id;sensor_type;location;lat;lon;timestamp;temperature;humidity
53065;DHT22;38948;48.376;-4.312;2022-08-14T00:00:24;26.30;57.50
53065;DHT22;38948;48.376;-4.312;2022-08-14T00:02:50;26.20;57.40
53065;DHT22;38948;48.376;-4.312;2022-08-14T00:05:19;26.20;57.10
53065;DHT22;38948;48.376;-4.312;2022-08-14T00:07:47;26.10;57.30
53065;DHT22;38948;48.376;-4.312;2022-08-14T00:10:16;26.10;57.60
53065;DHT22;38948;48.376;-4.312;2022-08-14T00:12:46;26.10;57.60
53065;DHT22;38948;48.376;-4.312;2022-08-14T00:15:16;26.10;57.30
53065;DHT22;38948;48.376;-4.312;2022-08-14T00:17:43;26.10;57.60
53065;DHT22;38948;48.376;-4.312;2022-08-14T00:20:09;26.10;57.50
53065;DHT22;38948;48.376;-4.312;2022-08-14T00:22:35;26.10;57.60
53065;DHT22;38948;48.376;-4.312;2022-08-14T00:25:01;26.10;57.50
53065;DHT22;38948;48.376;-4.312;2022-08-14T00:27:27;26.00;57.30
53065;DHT22;38948;48.376;-4.312;2022-08-14T00:29:52;26.00;57.50
53065;DHT22;38948;48.376;-4.312;2022-08-14T00:32:18;26.00;57.40
53065;DHT22;38948;48.376;-4.312;2022-08-14T00:34:44;26.00;57.50
53065;DHT22;38948;48.376;-4.312;2022-08-14T00:37:10;26.00;57.50
53065;DHT22;38948;48.376;-4.312;2022-08-14T00:39:36;26.00;57.60
53065;DHT22;38948;48.376;-4.312;2022-08-14T00:42:03;26.00;57.60
53065;DHT22;38948;48.376;-4.312;2022-08-14T00:44:29;26.00;57.70
53065;DHT22;38948;48.376;-4.312;2022-08-14T00:46:55;25.90;57.70
53065;DHT22;38948;48.376;-4.312;2022-08-14T00:49:21;25.90;57.80
53065;DHT22;38948;48.376;-4.312;2022-08-14T00:51:47;25.90;57.60
53065;DHT22;38948;48.376;-4.312;2022-08-14T00:54:13;25.80;57.80
53065;DHT22;38948;48.376;-4.312;2022-08-14T00:56:40;25.80;58.00
53065;DHT22;38948;48.376;-4.312;2022-08-14T00:59:06;25.70;58.00
53065;DHT22;38948;48.376;-4.312;2022-08-14T01:01:32;25.70;58.10
53065;DHT22;38948;48.376;-4.312;2022-08-14T01:04:01;25.70;58.20
53065;DHT22;38948;48.376;-4.312;2022-08-14T01:06:28;25.70;58.10
53065;DHT22;38948;48.376;-4.312;2022-08-14T01:08:54;25.70;58.20
53065;DHT22;38948;48.376;-4.312;2022-08-14T01:11:20;25.70;58.20
53065;DHT22;38948;48.376;-4.312;2022-08-14T01:13:47;25.70;58.30
53065;DHT22;38948;48.376;-4.312;2022-08-14T01:16:17;25.70;58.50
53065;DHT22;38948;48.376;-4.312;2022-08-14T01:18:45;25.60;58.70
53065;DHT22;38948;48.376;-4.312;2022-08-14T01:21:30;25.70;58.50
53065;DHT22;38948;48.376;-4.312;2022-08-14T01:23:56;25.70;58.60
53065;DHT22;38948;48.376;-4.312;2022-08-14T01:26:24;25.60;58.70
53065;DHT22;38948;48.376;-4.312;2022-08-14T01:28:52;25.60;58.60
53065;DHT22;38948;48.376;-4.312;2022-08-14T01:31:21;25.60;58.60
53065;DHT22;38948;48.376;-4.312;2022-08-14T01:33:50;25.60;58.80
53065;DHT22;38948;48.376;-4.312;2022-08-14T01:36:18;25.60;58.70
53065;DHT22;38948;48.376;-4.312;2022-08-14T01:38:49;25.50;58.90
53065;DHT22;38948;48.376;-4.312;2022-08-14T01:41:18;25.50;58.90
53065;DHT22;38948;48.376;-4.312;2022-08-14T01:43:57;25.50;59.00
53065;DHT22;38948;48.376;-4.312;2022-08-14T01:46:38;25.50;59.20
53065;DHT22;38948;48.376;-4.312;2022-08-14T01:49:07;25.40;59.30
53065;DHT22;38948;48.376;-4.312;2022-08-14T01:51:34;25.40;59.40
53065;DHT22;38948;48.376;-4.312;2022-08-14T01:54:06;25.40;59.40
53065;DHT22;38948;48.376;-4.312;2022-08-14T01:56:35;25.40;59.40
53065;DHT22;38948;48.376;-4.312;2022-08-14T01:59:05;25.40;59.50
53065;DHT22;38948;48.376;-4.312;2022-08-14T02:01:32;25.40;59.50
53065;DHT22;38948;48.376;-4.312;2022-08-14T02:04:03;25.30;59.50
53065;DHT22;38948;48.376;-4.312;2022-08-14T02:06:29;25.30;59.50
53065;DHT22;38948;48.376;-4.312;2022-08-14T02:08:56;25.30;59.70
53065;DHT22;38948;48.376;-4.312;2022-08-14T02:11:24;25.40;59.60
53065;DHT22;38948;48.376;-4.312;2022-08-14T02:13:58;25.40;59.50
53065;DHT22;38948;48.376;-4.312;2022-08-14T02:16:26;25.40;59.50
53065;DHT22;38948;48.376;-4.312;2022-08-14T02:18:56;25.40;59.40
53065;DHT22;38948;48.376;-4.312;2022-08-14T02:21:22;25.40;59.50
53065;DHT22;38948;48.376;-4.312;2022-08-14T02:23:50;25.40;59.50
53065;DHT22;38948;48.376;-4.312;2022-08-14T02:26:22;25.40;59.50
53065;DHT22;38948;48.376;-4.312;2022-08-14T02:28:51;25.40;59.40
53065;DHT22;38948;48.376;-4.312;2022-08-14T02:31:17;25.30;59.50
53065;DHT22;38948;48.376;-4.312;2022-08-14T02:33:43;25.30;59.70
53065;DHT22;38948;48.376;-4.312;2022-08-14T02:36:10;25.40;59.60
53065;DHT22;38948;48.376;-4.312;2022-08-14T02:38:37;25.40;59.70
53065;DHT22;38948;48.376;-4.312;2022-08-14T02:41:08;25.40;59.80
53065;DHT22;38948;48.376;-4.312;2022-08-14T02:43:34;25.30;59.90
53065;DHT22;38948;48.376;-4.312;2022-08-14T02:46:00;25.30;60.00
53065;DHT22;38948;48.376;-4.312;2022-08-14T02:48:27;25.30;60.10
53065;DHT22;38948;48.376;-4.312;2022-08-14T02:50:57;25.20;60.20
53065;DHT22;38948;48.376;-4.312;2022-08-14T02:53:23;25.20;60.20
53065;DHT22;38948;48.376;-4.312;2022-08-14T02:55:49;25.20;60.20
53065;DHT22;38948;48.376;-4.312;2022-08-14T02:58:15;25.20;60.30
53065;DHT22;38948;48.376;-4.312;2022-08-14T03:00:42;25.20;60.40
53065;DHT22;38948;48.376;-4.312;2022-08-14T03:03:08;25.20;60.30
53065;DHT22;38948;48.376;-4.312;2022-08-14T03:05:34;25.20;60.30
53065;DHT22;38948;48.376;-4.312;2022-08-14T03:08:09;25.20;60.40
53065;DHT22;38948;48.376;-4.312;2022-08-14T03:10:35;25.30;60.30
53065;DHT22;38948;48.376;-4.312;2022-08-14T03:13:01;25.20;60.40
53065;DHT22;38948;48.376;-4.312;2022-08-14T03:15:33;25.20;60.30
53065;DHT22;38948;48.376;-4.312;2022-08-14T03:18:09;25.20;60.40
53065;DHT22;38948;48.376;-4.312;2022-08-14T03:20:35;25.20;60.40
53065;DHT22;38948;48.376;-4.312;2022-08-14T03:23:01;25.20;60.40
53065;DHT22;38948;48.376;-4.312;2022-08-14T03:25:27;25.20;60.30
53065;DHT22;38948;48.376;-4.312;2022-08-14T03:28:00;25.10;60.50
53065;DHT22;38948;48.376;-4.312;2022-08-14T03:30:29;25.10;60.40
53065;DHT22;38948;48.376;-4.312;2022-08-14T03:32:56;25.10;60.30
53065;DHT22;38948;48.376;-4.312;2022-08-14T03:35:22;25.10;60.10
53065;DHT22;38948;48.376;-4.312;2022-08-14T03:37:48;25.10;60.20
53065;DHT22;38948;48.376;-4.312;2022-08-14T03:40:18;25.10;60.60
53065;DHT22;38948;48.376;-4.312;2022-08-14T03:42:45;25.00;61.10
53065;DHT22;38948;48.376;-4.312;2022-08-14T03:45:11;24.90;61.20
53065;DHT22;38948;48.376;-4.312;2022-08-14T03:47:37;24.90;61.80
53065;DHT22;38948;48.376;-4.312;2022-08-14T03:50:08;24.80;62.30
53065;DHT22;38948;48.376;-4.312;2022-08-14T03:52:39;24.70;62.60
53065;DHT22;38948;48.376;-4.312;2022-08-14T03:55:10;24.70;63.00
53065;DHT22;38948;48.376;-4.312;2022-08-14T03:57:38;24.70;63.30
53065;DHT22;38948;48.376;-4.312;2022-08-14T04:00:08;24.60;63.60
53065;DHT22;38948;48.376;-4.312;2022-08-14T04:02:39;24.60;63.40
53065;DHT22;38948;48.376;-4.312;2022-08-14T04:05:09;24.60;63.60
53065;DHT22;38948;48.376;-4.312;2022-08-14T04:07:35;24.60;63.50
53065;DHT22;38948;48.376;-4.312;2022-08-14T04:10:05;24.60;63.70
53065;DHT22;38948;48.376;-4.312;2022-08-14T04:12:31;24.60;63.80
53065;DHT22;38948;48.376;-4.312;2022-08-14T04:14:58;24.60;63.60
53065;DHT22;38948;48.376;-4.312;2022-08-14T04:17:25;24.60;63.70
53065;DHT22;38948;48.376;-4.312;2022-08-14T04:19:52;24.60;63.50
53065;DHT22;38948;48.376;-4.312;2022-08-14T04:22:18;24.60;63.60
53065;DHT22;38948;48.376;-4.312;2022-08-14T04:24:46;24.60;63.80
53065;DHT22;38948;48.376;-4.312;2022-08-14T04:27:12;24.60;63.90
53065;DHT22;38948;48.376;-4.312;2022-08-14T04:29:39;24.60;63.70
53065;DHT22;38948;48.376;-4.312;2022-08-14T04:32:07;24.60;63.90
53065;DHT22;38948;48.376;-4.312;2022-08-14T04:34:35;24.60;63.90
53065;DHT22;38948;48.376;-4.312;2022-08-14T04:37:04;24.60;63.60
53065;DHT22;38948;48.376;-4.312;2022-08-14T04:39:49;24.60;63.60
53065;DHT22;38948;48.376;-4.312;2022-08-14T04:42:33;24.60;64.00
53065;DHT22;38948;48.376;-4.312;2022-08-14T04:45:19;24.60;64.10
53065;DHT22;38948;48.376;-4.312;2022-08-14T04:47:45;24.60;63.70
53065;DHT22;38948;48.376;-4.312;2022-08-14T04:50:30;24.60;63.50
53065;DHT22;38948;48.376;-4.312;2022-08-14T04:52:55;24.60;64.10
53065;DHT22;38948;48.376;-4.312;2022-08-14T04:55:21;24.60;63.80
53065;DHT22;38948;48.376;-4.312;2022-08-14T04:57:47;24.60;63.80
53065;DHT22;38948;48.376;-4.312;2022-08-14T05:00:13;24.60;64.10
53065;DHT22;38948;48.376;-4.312;2022-08-14T05:02:39;24.60;63.80
53065;DHT22;38948;48.376;-4.312;2022-08-14T05:05:05;24.70;63.60
53065;DHT22;38948;48.376;-4.312;2022-08-14T05:07:31;24.70;64.00
53065;DHT22;38948;48.376;-4.312;2022-08-14T05:09:56;24.60;64.30
53065;DHT22;38948;48.376;-4.312;2022-08-14T05:12:22;24.60;64.10
53065;DHT22;38948;48.376;-4.312;2022-08-14T05:14:49;24.60;64.00
53065;DHT22;38948;48.376;-4.312;2022-08-14T05:17:14;24.60;64.20
53065;DHT22;38948;48.376;-4.312;2022-08-14T05:19:40;24.60;64.50
53065;DHT22;38948;48.376;-4.312;2022-08-14T05:22:06;24.50;64.70
53065;DHT22;38948;48.376;-4.312;2022-08-14T05:24:32;24.50;64.90
53065;DHT22;38948;48.376;-4.312;2022-08-14T05:26:58;24.50;64.80
53065;DHT22;38948;48.376;-4.312;2022-08-14T05:29:25;24.50;65.60
53065;DHT22;38948;48.376;-4.312;2022-08-14T05:31:51;24.50;66.00
53065;DHT22;38948;48.376;-4.312;2022-08-14T05:34:20;24.40;66.00
53065;DHT22;38948;48.376;-4.312;2022-08-14T05:36:47;24.40;65.90
53065;DHT22;38948;48.376;-4.312;2022-08-14T05:39:12;24.40;65.90
53065;DHT22;38948;48.376;-4.312;2022-08-14T05:41:38;24.40;65.90
53065;DHT22;38948;48.376;-4.312;2022-08-14T05:44:04;24.40;65.90
53065;DHT22;38948;48.376;-4.312;2022-08-14T05:46:30;24.40;66.00
53065;DHT22;38948;48.376;-4.312;2022-08-14T05:48:56;24.40;66.10
53065;DHT22;38948;48.376;-4.312;2022-08-14T05:51:25;24.40;66.10
53065;DHT22;38948;48.376;-4.312;2022-08-14T05:53:51;24.40;66.30
53065;DHT22;38948;48.376;-4.312;2022-08-14T05:56:17;24.40;66.30
53065;DHT22;38948;48.376;-4.312;2022-08-14T05:58:43;24.40;66.30
53065;DHT22;38948;48.376;-4.312;2022-08-14T06:01:09;24.50;66.50
53065;DHT22;38948;48.376;-4.312;2022-08-14T06:03:35;24.40;66.50
53065;DHT22;38948;48.376;-4.312;2022-08-14T06:06:01;24.40;67.30
53065;DHT22;38948;48.376;-4.312;2022-08-14T06:08:29;24.50;66.30
53065;DHT22;38948;48.376;-4.312;2022-08-14T06:10:57;24.60;66.30
53065;DHT22;38948;48.376;-4.312;2022-08-14T06:13:31;24.60;66.00
53065;DHT22;38948;48.376;-4.312;2022-08-14T06:15:57;24.60;65.70
53065;DHT22;38948;48.376;-4.312;2022-08-14T06:18:23;24.50;65.40
53065;DHT22;38948;48.376;-4.312;2022-08-14T06:20:50;24.50;65.20
53065;DHT22;38948;48.376;-4.312;2022-08-14T06:23:16;24.50;64.90
53065;DHT22;38948;48.376;-4.312;2022-08-14T06:25:42;24.60;64.70
53065;DHT22;38948;48.376;-4.312;2022-08-14T06:28:22;24.60;64.50
53065;DHT22;38948;48.376;-4.312;2022-08-14T06:30:49;24.60;64.80
53065;DHT22;38948;48.376;-4.312;2022-08-14T06:33:16;24.50;64.70
53065;DHT22;38948;48.376;-4.312;2022-08-14T06:35:43;24.50;65.00
53065;DHT22;38948;48.376;-4.312;2022-08-14T06:38:14;24.50;65.30
53065;DHT22;38948;48.376;-4.312;2022-08-14T06:40:41;24.50;65.40
53065;DHT22;38948;48.376;-4.312;2022-08-14T06:43:09;24.50;66.40
53065;DHT22;38948;48.376;-4.312;2022-08-14T06:45:38;24.40;66.60
53065;DHT22;38948;48.376;-4.312;2022-08-14T06:48:17;24.40;67.10
53065;DHT22;38948;48.376;-4.312;2022-08-14T06:50:46;24.40;67.70
53065;DHT22;38948;48.376;-4.312;2022-08-14T06:53:12;24.40;68.40
53065;DHT22;38948;48.376;-4.312;2022-08-14T06:55:40;24.30;68.10
53065;DHT22;38948;48.376;-4.312;2022-08-14T06:58:10;24.30;69.50
53065;DHT22;38948;48.376;-4.312;2022-08-14T07:00:37;24.30;69.70
53065;DHT22;38948;48.376;-4.312;2022-08-14T07:03:03;24.30;69.30
53065;DHT22;38948;48.376;-4.312;2022-08-14T07:05:47;24.30;69.60
53065;DHT22;38948;48.376;-4.312;2022-08-14T07:08:16;24.30;69.50
53065;DHT22;38948;48.376;-4.312;2022-08-14T07:10:46;24.20;69.80
53065;DHT22;38948;48.376;-4.312;2022-08-14T07:13:17;24.20;70.00
53065;DHT22;38948;48.376;-4.312;2022-08-14T07:15:44;24.20;70.10
53065;DHT22;38948;48.376;-4.312;2022-08-14T07:18:12;24.20;70.70
53065;DHT22;38948;48.376;-4.312;2022-08-14T07:20:39;24.20;71.00
53065;DHT22;38948;48.376;-4.312;2022-08-14T07:23:08;24.10;70.90
53065;DHT22;38948;48.376;-4.312;2022-08-14T07:25:36;24.10;71.00
53065;DHT22;38948;48.376;-4.312;2022-08-14T07:28:15;24.00;71.60
53065;DHT22;38948;48.376;-4.312;2022-08-14T07:30:41;24.00;71.90
53065;DHT22;38948;48.376;-4.312;2022-08-14T07:33:08;23.90;71.90
53065;DHT22;38948;48.376;-4.312;2022-08-14T07:35:35;23.80;72.30
53065;DHT22;38948;48.376;-4.312;2022-08-14T07:38:02;23.80;72.10
53065;DHT22;38948;48.376;-4.312;2022-08-14T07:40:28;23.80;72.40
53065;DHT22;38948;48.376;-4.312;2022-08-14T07:42:53;23.70;72.30
53065;DHT22;38948;48.376;-4.312;2022-08-14T07:45:20;23.70;72.80
53065;DHT22;38948;48.376;-4.312;2022-08-14T07:47:46;23.70;72.80
53065;DHT22;38948;48.376;-4.312;2022-08-14T07:50:14;23.70;72.40
53065;DHT22;38948;48.376;-4.312;2022-08-14T07:52:41;23.70;72.90
53065;DHT22;38948;48.376;-4.312;2022-08-14T07:55:09;23.60;73.60
53065;DHT22;38948;48.376;-4.312;2022-08-14T07:57:35;23.50;73.90
53065;DHT22;38948;48.376;-4.312;2022-08-14T08:00:04;23.50;73.30
53065;DHT22;38948;48.376;-4.312;2022-08-14T08:02:30;23.50;73.20
53065;DHT22;38948;48.376;-4.312;2022-08-14T08:04:57;23.50;73.60
53065;DHT22;38948;48.376;-4.312;2022-08-14T08:07:28;23.60;73.30
53065;DHT22;38948;48.376;-4.312;2022-08-14T08:09:56;23.60;73.20
53065;DHT22;38948;48.376;-4.312;2022-08-14T08:12:24;23.60;73.20
53065;DHT22;38948;48.376;-4.312;2022-08-14T08:14:50;23.60;73.10
53065;DHT22;38948;48.376;-4.312;2022-08-14T08:17:17;23.60;73.10
53065;DHT22;38948;48.376;-4.312;2022-08-14T08:19:45;23.70;73.90
53065;DHT22;38948;48.376;-4.312;2022-08-14T08:22:14;23.60;73.60
53065;DHT22;38948;48.376;-4.312;2022-08-14T08:24:40;23.60;73.90
53065;DHT22;38948;48.376;-4.312;2022-08-14T08:27:16;23.50;73.80
53065;DHT22;38948;48.376;-4.312;2022-08-14T08:29:42;23.50;74.40
53065;DHT22;38948;48.376;-4.312;2022-08-14T08:32:08;23.50;74.40
53065;DHT22;38948;48.376;-4.312;2022-08-14T08:34:45;23.60;75.10
53065;DHT22;38948;48.376;-4.312;2022-08-14T08:37:13;23.60;75.90
53065;DHT22;38948;48.376;-4.312;2022-08-14T08:39:44;23.60;76.90
53065;DHT22;38948;48.376;-4.312;2022-08-14T08:42:10;23.60;76.00
53065;DHT22;38948;48.376;-4.312;2022-08-14T08:44:36;23.70;76.10
53065;DHT22;38948;48.376;-4.312;2022-08-14T08:47:02;23.60;76.60
53065;DHT22;38948;48.376;-4.312;2022-08-14T08:49:39;23.60;75.30
53065;DHT22;38948;48.376;-4.312;2022-08-14T08:52:07;23.50;76.20
53065;DHT22;38948;48.376;-4.312;2022-08-14T08:54:33;23.50;76.30
53065;DHT22;38948;48.376;-4.312;2022-08-14T08:56:59;23.50;76.00
53065;DHT22;38948;48.376;-4.312;2022-08-14T08:59:29;23.50;76.20
53065;DHT22;38948;48.376;-4.312;2022-08-14T09:02:04;23.50;75.80
53065;DHT22;38948;48.376;-4.312;2022-08-14T09:04:41;23.50;76.20
53065;DHT22;38948;48.376;-4.312;2022-08-14T09:07:09;23.50;75.70
53065;DHT22;38948;48.376;-4.312;2022-08-14T09:09:36;23.60;75.50
53065;DHT22;38948;48.376;-4.312;2022-08-14T09:12:17;23.60;75.30
53065;DHT22;38948;48.376;-4.312;2022-08-14T09:14:44;23.70;74.50
53065;DHT22;38948;48.376;-4.312;2022-08-14T09:17:15;23.80;74.40
53065;DHT22;38948;48.376;-4.312;2022-08-14T09:19:41;23.80;75.20
53065;DHT22;38948;48.376;-4.312;2022-08-14T09:22:08;23.80;74.70
53065;DHT22;38948;48.376;-4.312;2022-08-14T09:24:35;23.80;75.40
53065;DHT22;38948;48.376;-4.312;2022-08-14T09:27:01;23.80;75.30
53065;DHT22;38948;48.376;-4.312;2022-08-14T09:29:27;23.80;75.60
53065;DHT22;38948;48.376;-4.312;2022-08-14T09:31:55;23.80;75.00
53065;DHT22;38948;48.376;-4.312;2022-08-14T09:34:43;23.80;75.50
53065;DHT22;38948;48.376;-4.312;2022-08-14T09:37:28;23.80;75.20
53065;DHT22;38948;48.376;-4.312;2022-08-14T09:40:31;23.80;75.60
53065;DHT22;38948;48.376;-4.312;2022-08-14T09:45:48;23.80;75.90
53065;DHT22;38948;48.376;-4.312;2022-08-14T09:48:19;23.80;75.90
53065;DHT22;38948;48.376;-4.312;2022-08-14T09:50:49;23.80;76.10
53065;DHT22;38948;48.376;-4.312;2022-08-14T09:53:40;23.90;76.10
53065;DHT22;38948;48.376;-4.312;2022-08-14T09:56:09;23.90;76.60
53065;DHT22;38948;48.376;-4.312;2022-08-14T09:58:42;23.90;76.20
53065;DHT22;38948;48.376;-4.312;2022-08-14T10:01:17;23.90;76.30
53065;DHT22;38948;48.376;-4.312;2022-08-14T10:03:52;24.00;76.20
53065;DHT22;38948;48.376;-4.312;2022-08-14T10:06:20;24.00;76.40
53065;DHT22;38948;48.376;-4.312;2022-08-14T10:09:03;24.00;76.40
53065;DHT22;38948;48.376;-4.312;2022-08-14T10:11:34;24.10;76.50
53065;DHT22;38948;48.376;-4.312;2022-08-14T10:14:15;24.10;76.70
53065;DHT22;38948;48.376;-4.312;2022-08-14T10:16:49;24.10;76.60
53065;DHT22;38948;48.376;-4.312;2022-08-14T10:19:17;24.20;76.60
53065;DHT22;38948;48.376;-4.312;2022-08-14T10:22:01;24.30;76.70
53065;DHT22;38948;48.376;-4.312;2022-08-14T10:24:36;24.30;76.60
53065;DHT22;38948;48.376;-4.312;2022-08-14T10:27:22;24.30;77.50
53065;DHT22;38948;48.376;-4.312;2022-08-14T10:29:50;24.30;76.70
53065;DHT22;38948;48.376;-4.312;2022-08-14T10:32:17;24.40;77.10
53065;DHT22;38948;48.376;-4.312;2022-08-14T10:34:42;24.50;76.10
53065;DHT22;38948;48.376;-4.312;2022-08-14T10:37:11;24.50;76.10
53065;DHT22;38948;48.376;-4.312;2022-08-14T10:39:38;24.50;75.40
53065;DHT22;38948;48.376;-4.312;2022-08-14T10:42:10;24.60;75.40
53065;DHT22;38948;48.376;-4.312;2022-08-14T10:44:38;24.60;74.60
53065;DHT22;38948;48.376;-4.312;2022-08-14T10:47:07;24.70;74.70
53065;DHT22;38948;48.376;-4.312;2022-08-14T10:49:37;24.70;74.80
53065;DHT22;38948;48.376;-4.312;2022-08-14T10:52:10;24.80;74.50
53065;DHT22;38948;48.376;-4.312;2022-08-14T10:54:46;24.80;74.40
53065;DHT22;38948;48.376;-4.312;2022-08-14T10:57:25;24.90;74.10
53065;DHT22;38948;48.376;-4.312;2022-08-14T10:59:55;24.90;74.40
53065;DHT22;38948;48.376;-4.312;2022-08-14T11:02:23;25.00;74.40
53065;DHT22;38948;48.376;-4.312;2022-08-14T11:07:29;25.10;73.90
53065;DHT22;38948;48.376;-4.312;2022-08-14T11:09:56;25.10;73.60
53065;DHT22;38948;48.376;-4.312;2022-08-14T11:12:37;25.20;73.60
53065;DHT22;38948;48.376;-4.312;2022-08-14T11:15:03;25.20;73.30
53065;DHT22;38948;48.376;-4.312;2022-08-14T11:17:33;25.20;73.10
53065;DHT22;38948;48.376;-4.312;2022-08-14T11:20:06;25.30;73.00
53065;DHT22;38948;48.376;-4.312;2022-08-14T11:22:32;25.30;72.90
53065;DHT22;38948;48.376;-4.312;2022-08-14T11:25:04;25.30;72.60
53065;DHT22;38948;48.376;-4.312;2022-08-14T11:27:32;25.30;72.60
53065;DHT22;38948;48.376;-4.312;2022-08-14T11:30:05;25.30;72.50
53065;DHT22;38948;48.376;-4.312;2022-08-14T11:32:31;25.30;72.50
53065;DHT22;38948;48.376;-4.312;2022-08-14T11:35:00;25.30;72.30
53065;DHT22;38948;48.376;-4.312;2022-08-14T11:37:28;25.30;71.90
53065;DHT22;38948;48.376;-4.312;2022-08-14T11:39:59;25.40;71.60
53065;DHT22;38948;48.376;-4.312;2022-08-14T11:42:27;25.40;71.50
53065;DHT22;38948;48.376;-4.312;2022-08-14T11:45:03;25.40;71.40
53065;DHT22;38948;48.376;-4.312;2022-08-14T11:47:33;25.40;71.20
53065;DHT22;38948;48.376;-4.312;2022-08-14T11:50:20;25.50;71.70
53065;DHT22;38948;48.376;-4.312;2022-08-14T11:52:47;25.50;71.80
53065;DHT22;38948;48.376;-4.312;2022-08-14T11:55:14;25.50;71.60
53065;DHT22;38948;48.376;-4.312;2022-08-14T11:57:41;25.60;71.60
53065;DHT22;38948;48.376;-4.312;2022-08-14T12:00:11;25.60;71.90
53065;DHT22;38948;48.376;-4.312;2022-08-14T12:02:49;25.70;71.60
53065;DHT22;38948;48.376;-4.312;2022-08-14T12:05:15;25.70;71.80
53065;DHT22;38948;48.376;-4.312;2022-08-14T12:07:48;25.70;71.70
53065;DHT22;38948;48.376;-4.312;2022-08-14T12:10:17;25.70;71.40
53065;DHT22;38948;48.376;-4.312;2022-08-14T12:12:43;25.80;71.10
53065;DHT22;38948;48.376;-4.312;2022-08-14T12:15:09;25.80;70.90
53065;DHT22;38948;48.376;-4.312;2022-08-14T12:17:45;25.80;70.70
53065;DHT22;38948;48.376;-4.312;2022-08-14T12:20:13;25.80;70.30
53065;DHT22;38948;48.376;-4.312;2022-08-14T12:22:44;25.80;69.70
53065;DHT22;38948;48.376;-4.312;2022-08-14T12:25:18;25.80;69.30
53065;DHT22;38948;48.376;-4.312;2022-08-14T12:27:50;25.80;69.20
53065;DHT22;38948;48.376;-4.312;2022-08-14T12:30:39;25.80;69.10
53065;DHT22;38948;48.376;-4.312;2022-08-14T12:33:22;25.80;68.80
53065;DHT22;38948;48.376;-4.312;2022-08-14T12:35:52;25.80;68.30
53065;DHT22;38948;48.376;-4.312;2022-08-14T12:38:29;25.70;68.50
53065;DHT22;38948;48.376;-4.312;2022-08-14T12:40:55;25.70;68.30
53065;DHT22;38948;48.376;-4.312;2022-08-14T12:43:21;25.80;68.10
53065;DHT22;38948;48.376;-4.312;2022-08-14T12:45:51;25.80;68.40
53065;DHT22;38948;48.376;-4.312;2022-08-14T12:48:20;25.80;68.60
53065;DHT22;38948;48.376;-4.312;2022-08-14T12:50:47;25.80;68.40
53065;DHT22;38948;48.376;-4.312;2022-08-14T12:53:16;25.80;68.30
53065;DHT22;38948;48.376;-4.312;2022-08-14T12:55:43;25.80;68.00
53065;DHT22;38948;48.376;-4.312;2022-08-14T12:58:10;25.80;67.90
53065;DHT22;38948;48.376;-4.312;2022-08-14T13:00:46;25.80;68.00
53065;DHT22;38948;48.376;-4.312;2022-08-14T13:03:23;25.80;67.90
53065;DHT22;38948;48.376;-4.312;2022-08-14T13:05:49;25.80;67.70
53065;DHT22;38948;48.376;-4.312;2022-08-14T13:08:15;25.80;67.90
53065;DHT22;38948;48.376;-4.312;2022-08-14T13:10:41;25.80;67.70
53065;DHT22;38948;48.376;-4.312;2022-08-14T13:13:09;25.80;67.70
53065;DHT22;38948;48.376;-4.312;2022-08-14T13:15:35;25.80;67.20
53065;DHT22;38948;48.376;-4.312;2022-08-14T13:18:02;25.80;67.30
53065;DHT22;38948;48.376;-4.312;2022-08-14T13:20:29;25.90;67.20
53065;DHT22;38948;48.376;-4.312;2022-08-14T13:22:56;25.90;67.20
53065;DHT22;38948;48.376;-4.312;2022-08-14T13:25:23;25.90;67.10
53065;DHT22;38948;48.376;-4.312;2022-08-14T13:27:55;25.90;66.90
53065;DHT22;38948;48.376;-4.312;2022-08-14T13:30:23;25.90;66.60
53065;DHT22;38948;48.376;-4.312;2022-08-14T13:32:51;26.00;66.70
53065;DHT22;38948;48.376;-4.312;2022-08-14T13:35:18;26.00;66.80
53065;DHT22;38948;48.376;-4.312;2022-08-14T13:37:45;26.00;66.40
53065;DHT22;38948;48.376;-4.312;2022-08-14T13:40:17;26.00;66.30
53065;DHT22;38948;48.376;-4.312;2022-08-14T13:42:50;26.00;66.60
53065;DHT22;38948;48.376;-4.312;2022-08-14T13:45:19;26.10;66.60
53065;DHT22;38948;48.376;-4.312;2022-08-14T13:47:49;26.10;66.70
53065;DHT22;38948;48.376;-4.312;2022-08-14T13:50:17;26.20;66.80
53065;DHT22;38948;48.376;-4.312;2022-08-14T13:52:50;26.20;67.10
53065;DHT22;38948;48.376;-4.312;2022-08-14T13:55:24;26.30;67.20
53065;DHT22;38948;48.376;-4.312;2022-08-14T13:57:50;26.30;67.10
53065;DHT22;38948;48.376;-4.312;2022-08-14T14:00:19;26.40;67.20
53065;DHT22;38948;48.376;-4.312;2022-08-14T14:02:46;26.40;67.50
53065;DHT22;38948;48.376;-4.312;2022-08-14T14:05:14;26.40;67.20
53065;DHT22;38948;48.376;-4.312;2022-08-14T14:07:48;26.50;67.00
53065;DHT22;38948;48.376;-4.312;2022-08-14T14:10:15;26.50;66.90
53065;DHT22;38948;48.376;-4.312;2022-08-14T14:12:42;26.50;66.90
53065;DHT22;38948;48.376;-4.312;2022-08-14T14:15:18;26.60;66.70
53065;DHT22;38948;48.376;-4.312;2022-08-14T14:17:46;26.60;66.40
53065;DHT22;38948;48.376;-4.312;2022-08-14T14:20:18;26.60;66.40
53065;DHT22;38948;48.376;-4.312;2022-08-14T14:22:46;26.60;65.80
53065;DHT22;38948;48.376;-4.312;2022-08-14T14:25:15;26.60;65.50
53065;DHT22;38948;48.376;-4.312;2022-08-14T14:27:47;26.60;65.40
53065;DHT22;38948;48.376;-4.312;2022-08-14T14:30:18;26.60;65.40
53065;DHT22;38948;48.376;-4.312;2022-08-14T14:32:47;26.70;65.00
53065;DHT22;38948;48.376;-4.312;2022-08-14T14:35:15;26.70;64.90
53065;DHT22;38948;48.376;-4.312;2022-08-14T14:37:45;26.70;65.00
53065;DHT22;38948;48.376;-4.312;2022-08-14T14:40:15;26.70;64.40
53065;DHT22;38948;48.376;-4.312;2022-08-14T14:42:48;26.70;64.10
53065;DHT22;38948;48.376;-4.312;2022-08-14T14:45:17;26.80;64.00
53065;DHT22;38948;48.376;-4.312;2022-08-14T14:47:49;26.70;64.90
53065;DHT22;38948;48.376;-4.312;2022-08-14T14:50:17;26.70;63.30
53065;DHT22;38948;48.376;-4.312;2022-08-14T14:52:45;26.70;63.30
53065;DHT22;38948;48.376;-4.312;2022-08-14T14:55:12;26.70;63.10
53065;DHT22;38948;48.376;-4.312;2022-08-14T14:57:41;26.70;63.00
53065;DHT22;38948;48.376;-4.312;2022-08-14T15:00:12;26.70;63.10
53065;DHT22;38948;48.376;-4.312;2022-08-14T15:02:50;26.70;63.20
53065;DHT22;38948;48.376;-4.312;2022-08-14T15:05:17;26.60;63.30
53065;DHT22;38948;48.376;-4.312;2022-08-14T15:07:44;26.60;63.40
53065;DHT22;38948;48.376;-4.312;2022-08-14T15:10:12;26.60;63.40
53065;DHT22;38948;48.376;-4.312;2022-08-14T15:12:39;26.60;63.30
53065;DHT22;38948;48.376;-4.312;2022-08-14T15:15:05;26.60;63.30
53065;DHT22;38948;48.376;-4.312;2022-08-14T15:17:31;26.60;63.30
53065;DHT22;38948;48.376;-4.312;2022-08-14T15:20:11;26.60;63.20
53065;DHT22;38948;48.376;-4.312;2022-08-14T15:22:38;26.60;63.40
53065;DHT22;38948;48.376;-4.312;2022-08-14T15:25:09;26.60;63.40
53065;DHT22;38948;48.376;-4.312;2022-08-14T15:27:36;26.60;63.30
53065;DHT22;38948;48.376;-4.312;2022-08-14T15:30:05;26.50;63.50
53065;DHT22;38948;48.376;-4.312;2022-08-14T15:32:32;26.50;63.60